Hovedside
METAR-TAF:

METAR-TAF

Lufthavner :

Yap, Mikronesia

breddegrad: 09-29N, lengdegrad: 138-05E, høyde over havet: 28 m

Gjeldene værobservasjon

Denne rapporten ble laget for 39 minutter siden, klokken 18:50 UTC
Vind 6 kt fra skiftende retning
Temperatur 25°C
Luftfuktighet 94%
Trykk 1007 hPa
Sikt: 19.3 km
Spredte skyer i en høyde av 1600 ft, Tårnskyer (cumulus).
Spredte skyer i en høyde av 12000 ft
Overskyet i en høyde av 30000 ft

METAR: PTYA 191850Z VRB06KT 12SM SCT016TCU SCT120 OVC300 25/24 A2974 RMK TCU SE-W SLP073 T02540235

Tid: 05:29 (19:29 UTC)

Varsel

Denne rapporten ble laget for 2 timer og 9 minutter siden, klokken 17:20 UTC
Varsel gyldig fra 19. klokken 18 UTC til 20. klokken 18 UTC
Vind 7 kt fra Øst-nordøst
Sikt: 10 km
Spredte skyer i en høyde av 1800 ft
Brutte skyer i en høyde av 14000 ft
regnbyger i nærheten

TAF: PTYA 191720Z 1918/2018 07007KT P6SM VCSH SCT018 BKN140

Værobservasjoner og værvarsel for over 4000 flyplasser (METAR- og TAF-rapporter).

Tilgjengelige stasjoner er representert av de røde og gule prikkene på kartet.

Hold musepekeren over prikken for å se navnet på stasjonen.

Klikk så for å se værobservasjoner og -varsler.

For å forandre kartet kan du klikke på den grønne knappen med svart kryss for å zoome inn, på den grønne knappen med strek for å zoome ut, eller på de grønne pilene for å se tilstøtende kart.


METAR-TAF: